Time;durP1;ratioP1;P1;durP2;ratioP2;P2;SDS_P1;SDS_P2;PMS_P1;PMS_P2;Temp;Humidity;BMP_temperature;BMP_pressure;BME280_temperature;BME280_humidity;BME280_pressure;Samples;Min_cycle;Max_cycle;Signal;HPM_P1;HPM_P2
2022/09/18 00:01:11;;;;;;;0.40;0.40;;;;;;;12.38;65.61;99067.63;5064685;28;20063;-68
2022/09/18 00:03:39;;;;;;;0.40;0.40;;;;;;;12.40;65.25;99072.75;5064554;28;20473;-68
2022/09/18 00:06:27;;;;;;;0.40;0.40;;;;;;;12.42;65.62;99065.75;5064577;28;20056;-67
2022/09/18 00:08:54;;;;;;;0.30;0.30;;;;;;;12.47;64.88;99070.78;5064626;28;20036;-67
2022/09/18 00:11:22;;;;;;;0.35;0.35;;;;;;;12.50;64.79;99073.28;5064225;28;20028;-67
2022/09/18 00:13:48;;;;;;;1.20;1.20;;;;;;;12.45;65.43;99070.00;5064538;28;20326;-66
2022/09/18 00:16:15;;;;;;;0.30;0.30;;;;;;;12.54;65.00;99074.84;5064481;28;20120;-66
2022/09/18 00:18:42;;;;;;;0.30;0.30;;;;;;;12.57;64.86;99073.91;5064479;28;20053;-66
2022/09/18 00:21:12;;;;;;;0.30;0.30;;;;;;;12.58;65.07;99070.38;5064540;28;20048;-66
2022/09/18 00:23:38;;;;;;;0.40;0.40;;;;;;;12.59;64.69;99066.84;5063081;28;20029;-67
2022/09/18 00:26:04;;;;;;;0.40;0.40;;;;;;;12.67;64.45;99066.59;5064229;28;20025;-66
2022/09/18 00:28:30;;;;;;;0.32;0.32;;;;;;;12.69;64.43;99069.97;5064783;28;20089;-66
2022/09/18 00:30:55;;;;;;;0.40;0.40;;;;;;;12.73;64.24;99069.78;5064225;28;20095;-66
2022/09/18 00:33:20;;;;;;;0.30;0.30;;;;;;;12.75;64.06;99062.75;5064455;28;20021;-66
2022/09/18 00:35:46;;;;;;;0.30;0.30;;;;;;;12.77;63.80;99060.09;5064072;28;20098;-65
2022/09/18 00:38:11;;;;;;;0.30;0.30;;;;;;;12.72;64.67;99062.03;5064236;28;20029;-66
2022/09/18 00:40:37;;;;;;;0.32;0.32;;;;;;;12.70;65.00;99059.47;5064140;28;20104;-68
2022/09/18 00:43:24;;;;;;;0.30;0.30;;;;;;;12.71;65.21;99070.75;5064476;28;20512;-67
2022/09/18 00:46:22;;;;;;;0.30;0.30;;;;;;;12.69;66.02;99063.00;5064043;28;20032;-66
2022/09/18 00:49:03;;;;;;;0.40;0.40;;;;;;;12.73;64.56;99064.56;5067426;28;20025;-66
2022/09/18 00:51:32;;;;;;;0.40;0.40;;;;;;;12.71;64.03;99062.94;5068010;28;20021;-66
2022/09/18 00:54:23;;;;;;;0.30;0.30;;;;;;;12.72;64.03;99049.88;5067807;28;20051;-67
2022/09/18 00:56:51;;;;;;;0.32;0.32;;;;;;;12.70;63.84;99054.28;5060432;28;20076;-67
2022/09/18 00:59:23;;;;;;;0.40;0.40;;;;;;;12.63;63.70;99053.69;5067873;28;20047;-67
2022/09/18 01:01:48;;;;;;;0.47;0.47;;;;;;;12.61;63.74;99052.88;5067929;28;20052;-67
2022/09/18 01:04:13;;;;;;;0.38;0.38;;;;;;;12.48;63.64;99051.66;5067781;28;20047;-67
2022/09/18 01:06:46;;;;;;;0.40;0.40;;;;;;;12.50;63.52;99071.53;5067555;28;20020;-66
2022/09/18 01:09:32;;;;;;;0.40;0.40;;;;;;;12.45;63.45;99064.78;5067810;28;20047;-66
2022/09/18 01:12:17;;;;;;;0.30;0.30;;;;;;;12.42;63.33;99070.09;5067614;28;20025;-66
2022/09/18 01:14:49;;;;;;;0.40;0.40;;;;;;;12.40;63.25;99077.97;5067510;28;20039;-67
2022/09/18 01:17:16;;;;;;;0.75;0.75;;;;;;;12.37;63.21;99081.56;5067258;28;20037;-66
2022/09/18 01:20:18;;;;;;;0.40;0.40;;;;;;;12.36;63.21;99079.84;5067710;28;20047;-66
2022/09/18 01:23:02;;;;;;;0.30;0.30;;;;;;;12.39;63.29;99090.16;5067451;28;20082;-66
2022/09/18 01:26:08;;;;;;;0.35;0.35;;;;;;;12.38;63.18;99075.44;5067162;28;20025;-66
2022/09/18 01:29:29;;;;;;;0.40;0.40;;;;;;;12.41;63.14;99081.44;5067437;28;20385;-66
2022/09/18 01:31:57;;;;;;;0.30;0.30;;;;;;;12.40;62.99;99077.97;5005113;28;20042;-66
2022/09/18 01:34:34;;;;;;;0.40;0.40;;;;;;;12.41;63.28;99084.03;5005347;28;20545;-66
2022/09/18 01:37:12;;;;;;;0.40;0.40;;;;;;;12.41;63.01;99071.88;5005210;28;20099;-66
2022/09/18 01:39:49;;;;;;;0.40;0.40;;;;;;;12.37;62.90;99073.75;5005450;28;20545;-66
2022/09/18 01:42:18;;;;;;;0.40;0.40;;;;;;;12.34;62.78;99065.19;5005515;28;20046;-66
2022/09/18 01:44:45;;;;;;;0.38;0.38;;;;;;;12.27;62.70;99061.97;5005125;28;20041;-66
2022/09/18 01:47:13;;;;;;;0.40;0.40;;;;;;;12.25;62.63;99061.19;5005101;28;20086;-66
2022/09/18 01:49:46;;;;;;;0.40;0.40;;;;;;;12.18;62.48;99057.97;5005062;28;20474;-66
2022/09/18 01:52:37;;;;;;;0.40;0.40;;;;;;;12.09;62.71;99059.13;4988808;28;20022;-66
2022/09/18 01:55:08;;;;;;;0.40;0.40;;;;;;;12.02;62.48;99057.63;5005159;28;20077;-65
2022/09/18 01:57:49;;;;;;;0.40;0.40;;;;;;;11.93;62.49;99058.84;5005003;28;20207;-66
2022/09/18 02:00:15;;;;;;;0.50;0.50;;;;;;;11.83;62.49;99053.09;5004549;28;20030;-65
2022/09/18 02:02:46;;;;;;;0.40;0.40;;;;;;;11.80;62.27;99061.03;5004972;28;20088;-66
2022/09/18 02:05:18;;;;;;;0.40;0.40;;;;;;;11.76;62.20;99056.81;5005060;28;20101;-66
2022/09/18 02:08:02;;;;;;;0.40;0.40;;;;;;;11.74;62.62;99056.03;5021639;28;20037;-68
2022/09/18 02:10:31;;;;;;;0.30;0.30;;;;;;;11.74;62.52;99059.47;5066637;28;20025;-66
2022/09/18 02:13:01;;;;;;;0.30;0.30;;;;;;;11.75;62.47;99055.97;5066661;28;20025;-67
2022/09/18 02:15:31;;;;;;;0.40;0.40;;;;;;;11.70;62.64;99055.28;5066558;28;20469;-66
2022/09/18 02:18:01;;;;;;;0.40;0.40;;;;;;;11.71;62.35;99061.34;5066358;28;20029;-66
2022/09/18 02:20:32;;;;;;;0.40;0.40;;;;;;;11.61;62.75;99066.00;5066608;28;20021;-66
2022/09/18 02:23:03;;;;;;;0.40;0.40;;;;;;;11.53;63.57;99061.06;5066416;28;20105;-65
2022/09/18 02:25:47;;;;;;;1.08;1.05;;;;;;;11.52;63.05;99059.34;5066143;28;20499;-66
2022/09/18 02:28:15;;;;;;;0.40;0.40;;;;;;;11.53;63.06;99063.66;5066429;28;20025;-66
2022/09/18 02:30:41;;;;;;;0.40;0.40;;;;;;;11.50;63.46;99059.41;5066091;28;20025;-65
2022/09/18 02:33:27;;;;;;;0.40;0.40;;;;;;;11.54;63.27;99057.56;5066334;28;20530;-66
2022/09/18 02:36:13;;;;;;;0.30;0.30;;;;;;;11.52;63.34;99060.22;5065709;28;20044;-66
2022/09/18 02:38:47;;;;;;;0.40;0.40;;;;;;;11.52;63.53;99055.00;5066135;28;20032;-66
2022/09/18 02:41:26;;;;;;;0.40;0.40;;;;;;;11.51;63.54;99048.13;5064694;28;20052;-66
2022/09/18 02:44:22;;;;;;;0.40;0.40;;;;;;;11.49;63.61;99049.06;5066150;28;20024;-66
2022/09/18 02:47:14;;;;;;;0.38;0.38;;;;;;;11.47;63.92;99046.53;5064525;28;20029;-66
2022/09/18 02:49:58;;;;;;;0.50;0.50;;;;;;;11.50;64.02;99045.59;5066013;28;20417;-66
2022/09/18 02:52:29;;;;;;;0.40;0.40;;;;;;;11.48;64.07;99036.97;5065816;28;20036;-66
2022/09/18 02:54:56;;;;;;;0.40;0.40;;;;;;;11.50;64.05;99046.41;5065543;28;20084;-66
2022/09/18 02:57:36;;;;;;;0.40;0.40;;;;;;;11.46;64.20;99037.03;5065728;28;20025;-66
2022/09/18 03:00:04;;;;;;;0.57;0.57;;;;;;;11.41;64.27;99041.53;5065682;28;20415;-66
2022/09/18 03:02:29;;;;;;;0.82;0.77;;;;;;;11.40;64.95;99035.50;5065671;28;20025;-66
2022/09/18 03:04:55;;;;;;;0.35;0.35;;;;;;;11.36;65.45;99036.50;5065624;28;20029;-65
2022/09/18 03:07:20;;;;;;;0.40;0.40;;;;;;;11.32;65.71;99039.25;5065433;28;20025;-66
2022/09/18 03:09:46;;;;;;;0.40;0.40;;;;;;;11.27;65.69;99039.41;5065487;28;20028;-65
2022/09/18 03:12:12;;;;;;;0.40;0.40;;;;;;;11.22;65.52;99031.78;5065520;28;20025;-66
2022/09/18 03:14:37;;;;;;;0.40;0.40;;;;;;;11.21;65.31;99037.00;5065485;28;20025;-66
2022/09/18 03:17:03;;;;;;;0.40;0.40;;;;;;;11.19;65.34;99037.06;5065458;28;20029;-66
2022/09/18 03:19:28;;;;;;;1.05;1.05;;;;;;;11.20;64.98;99037.94;5064018;28;20351;-66
2022/09/18 03:21:54;;;;;;;0.40;0.40;;;;;;;11.19;65.17;99038.81;5065335;28;20056;-66
2022/09/18 03:24:19;;;;;;;0.40;0.40;;;;;;;11.18;65.14;99035.38;5065266;28;20104;-66
2022/09/18 03:26:45;;;;;;;0.40;0.40;;;;;;;11.18;64.97;99034.53;5064441;28;20084;-66
2022/09/18 03:29:12;;;;;;;0.40;0.40;;;;;;;11.25;64.95;99036.00;5062723;28;20013;-66
2022/09/18 03:31:37;;;;;;;0.38;0.38;;;;;;;11.32;64.88;99039.25;5064322;28;20027;-66
2022/09/18 03:34:03;;;;;;;0.40;0.40;;;;;;;11.36;64.72;99044.28;5065015;28;20024;-66
2022/09/18 03:36:28;;;;;;;0.30;0.30;;;;;;;11.40;64.76;99045.91;5064689;28;20049;-66
2022/09/18 03:38:54;;;;;;;0.40;0.40;;;;;;;11.50;64.59;99054.22;5065059;28;20052;-67
2022/09/18 03:41:21;;;;;;;0.30;0.30;;;;;;;11.51;64.46;99050.72;5064722;28;20053;-66
2022/09/18 03:43:47;;;;;;;0.30;0.30;;;;;;;11.52;64.44;99048.97;5065022;28;20025;-67
2022/09/18 03:46:12;;;;;;;0.40;0.40;;;;;;;11.52;64.52;99054.16;5063367;28;20050;-66
2022/09/18 03:48:38;;;;;;;0.30;0.30;;;;;;;11.49;64.60;99054.25;5064824;28;20032;-66
2022/09/18 03:51:03;;;;;;;0.40;0.40;;;;;;;11.46;64.71;99057.81;5064624;28;20488;-66
2022/09/18 03:53:28;;;;;;;0.40;0.40;;;;;;;11.44;64.90;99051.81;5064649;28;20032;-66
2022/09/18 03:55:54;;;;;;;0.30;0.30;;;;;;;11.45;64.83;99060.47;5064355;28;20016;-65
2022/09/18 03:58:19;;;;;;;0.30;0.30;;;;;;;11.39;64.91;99059.78;5063239;28;20028;-66
2022/09/18 04:00:45;;;;;;;0.40;0.40;;;;;;;11.35;65.08;99052.13;5064594;28;20048;-65
2022/09/18 04:03:10;;;;;;;0.30;0.30;;;;;;;11.33;65.14;99069.53;5064657;28;20021;-66
2022/09/18 04:05:36;;;;;;;0.40;0.40;;;;;;;11.25;65.37;99062.84;5064377;28;20373;-66
2022/09/18 04:08:01;;;;;;;0.30;0.30;;;;;;;11.21;65.46;99075.97;5064606;28;20358;-66
2022/09/18 04:10:27;;;;;;;0.40;0.40;;;;;;;11.15;65.55;99074.41;5064339;28;20112;-65
2022/09/18 04:12:52;;;;;;;0.40;0.40;;;;;;;11.13;65.51;99068.44;5064577;28;20036;-66
2022/09/18 04:15:18;;;;;;;0.30;0.30;;;;;;;11.06;65.68;99062.59;5064348;28;20017;-67
2022/09/18 04:17:44;;;;;;;0.30;0.30;;;;;;;11.02;65.60;99067.03;5064529;28;20033;-66
2022/09/18 04:20:09;;;;;;;0.40;0.40;;;;;;;11.03;65.76;99066.16;5064580;28;20025;-67
2022/09/18 04:22:35;;;;;;;0.30;0.30;;;;;;;10.98;65.95;99069.75;5065843;28;20103;-67
2022/09/18 04:25:01;;;;;;;0.38;0.38;;;;;;;10.95;66.14;99067.28;5068222;28;20020;-66
2022/09/18 04:27:26;;;;;;;0.40;0.40;;;;;;;10.94;66.03;99074.22;5068467;28;20036;-67
2022/09/18 04:29:52;;;;;;;0.40;0.40;;;;;;;10.89;66.39;99070.91;5068461;28;20029;-67
2022/09/18 04:32:17;;;;;;;0.40;0.40;;;;;;;10.93;66.03;99082.91;5068417;28;20353;-66
2022/09/18 04:34:42;;;;;;;0.40;0.40;;;;;;;10.88;65.73;99070.06;5068719;28;20024;-66
2022/09/18 04:37:08;;;;;;;0.40;0.40;;;;;;;10.96;65.48;99081.97;5068049;28;20037;-66
2022/09/18 04:39:34;;;;;;;0.38;0.38;;;;;;;10.91;65.64;99074.28;5068251;28;20063;-65
2022/09/18 04:42:00;;;;;;;0.30;0.30;;;;;;;10.87;66.32;99076.16;5065647;28;20035;-66
2022/09/18 04:44:25;;;;;;;0.30;0.30;;;;;;;10.81;67.25;99078.09;5066970;28;20033;-65
2022/09/18 04:46:51;;;;;;;0.40;0.40;;;;;;;10.73;67.00;99079.19;5066641;28;20021;-67
2022/09/18 04:49:17;;;;;;;0.30;0.30;;;;;;;10.74;66.74;99086.06;5067532;28;20063;-67
2022/09/18 04:51:43;;;;;;;0.50;0.50;;;;;;;10.80;66.40;99089.38;5068112;28;20047;-66
2022/09/18 04:54:09;;;;;;;0.40;0.40;;;;;;;10.82;66.37;99095.34;5067864;28;20033;-67
2022/09/18 04:56:34;;;;;;;0.40;0.40;;;;;;;10.84;66.26;99090.97;5066395;28;20021;-66
2022/09/18 04:59:00;;;;;;;0.30;0.30;;;;;;;10.88;66.26;99084.78;5067903;28;20052;-66
2022/09/18 05:01:25;;;;;;;0.40;0.40;;;;;;;10.89;66.78;99089.09;5067786;28;20062;-66
2022/09/18 05:03:51;;;;;;;0.40;0.40;;;;;;;10.93;66.58;99089.84;5067908;28;20433;-66
2022/09/18 05:06:16;;;;;;;0.30;0.30;;;;;;;10.93;66.76;99087.25;5067462;28;20025;-67
2022/09/18 05:08:41;;;;;;;0.40;0.40;;;;;;;10.95;66.87;99090.63;5067749;28;20025;-66
2022/09/18 05:11:07;;;;;;;0.40;0.40;;;;;;;10.94;66.62;99091.53;5067621;28;20048;-66
2022/09/18 05:13:32;;;;;;;1.10;1.10;;;;;;;10.96;66.54;99092.34;5067792;28;20522;-67
2022/09/18 05:15:57;;;;;;;0.30;0.30;;;;;;;11.00;66.42;99097.41;5067463;28;20469;-66
2022/09/18 05:18:23;;;;;;;0.40;0.40;;;;;;;11.00;66.25;99086.16;5067558;28;20025;-66
2022/09/18 05:20:48;;;;;;;0.40;0.40;;;;;;;11.03;66.45;99094.72;5067438;28;20154;-66
2022/09/18 05:23:14;;;;;;;0.40;0.40;;;;;;;11.03;66.63;99097.31;5067555;28;20025;-66
2022/09/18 05:25:41;;;;;;;0.38;0.38;;;;;;;11.04;67.26;99092.94;5067275;28;20021;-66
2022/09/18 05:28:06;;;;;;;0.32;0.32;;;;;;;11.00;67.27;99097.41;5067472;28;20032;-66
2022/09/18 05:30:32;;;;;;;0.38;0.38;;;;;;;10.99;67.37;99100.88;5067327;28;20021;-66
2022/09/18 05:33:03;;;;;;;0.40;0.40;;;;;;;11.01;67.29;99098.22;5067178;28;20073;-67
2022/09/18 05:35:33;;;;;;;0.50;0.50;;;;;;;11.00;67.36;99097.41;5065788;28;20027;-66
2022/09/18 05:38:00;;;;;;;0.40;0.40;;;;;;;11.00;67.48;99100.00;5067013;28;20044;-66
2022/09/18 05:40:29;;;;;;;0.40;0.40;;;;;;;10.96;67.42;99088.00;5066952;28;20035;-66
2022/09/18 05:42:55;;;;;;;0.40;0.40;;;;;;;11.03;67.62;99099.91;5065865;28;20055;-67
2022/09/18 05:45:21;;;;;;;0.40;0.40;;;;;;;11.05;67.70;99096.41;5066169;28;20021;-67
2022/09/18 05:47:56;;;;;;;0.40;0.40;;;;;;;11.11;67.41;99097.06;5065941;28;20036;-67
2022/09/18 05:50:22;;;;;;;0.40;0.40;;;;;;;11.15;67.48;99096.06;5065493;28;20032;-66
2022/09/18 05:53:16;;;;;;;0.30;0.30;;;;;;;11.19;67.63;99103.75;5066865;28;20463;-66
2022/09/18 05:55:41;;;;;;;0.40;0.40;;;;;;;11.26;67.27;99094.88;5066576;28;20028;-67
2022/09/18 05:58:11;;;;;;;0.40;0.40;;;;;;;11.34;67.35;99098.03;5066718;28;20028;-66
2022/09/18 06:00:37;;;;;;;0.40;0.40;;;;;;;11.41;66.98;99101.31;5066887;28;20021;-68
2022/09/18 06:03:09;;;;;;;0.35;0.35;;;;;;;11.47;67.11;99092.47;5065121;28;20449;-67
2022/09/18 06:05:36;;;;;;;;;;;;;;;11.55;66.97;99095.63;5066009;28;20088;-66
2022/09/18 06:08:04;;;;;;;0.40;0.40;;;;;;;11.60;66.64;99092.88;5066730;28;19970;-66
2022/09/18 06:10:31;;;;;;;0.40;0.40;;;;;;;11.68;66.71;99085.69;5066137;28;20020;-66
2022/09/18 06:13:12;;;;;;;0.40;0.40;;;;;;;11.79;66.60;99098.31;5066677;28;20552;-66
2022/09/18 06:15:37;;;;;;;0.30;0.30;;;;;;;11.89;66.41;99099.69;5066850;28;20031;-66
2022/09/18 06:18:07;;;;;;;0.40;0.40;;;;;;;11.90;66.32;99096.19;5066294;28;20107;-66
2022/09/18 06:20:33;;;;;;;0.30;0.30;;;;;;;12.07;66.38;99101.69;5066434;28;20031;-67
2022/09/18 06:22:59;;;;;;;0.38;0.38;;;;;;;12.20;66.05;99102.13;5066352;28;20099;-67
2022/09/18 06:25:26;;;;;;;0.30;0.30;;;;;;;12.35;66.04;99098.09;5066104;28;20020;-66
2022/09/18 06:27:57;;;;;;;0.30;0.30;;;;;;;12.58;66.41;99099.00;5066404;28;20373;-67
2022/09/18 06:30:25;;;;;;;0.40;0.40;;;;;;;13.20;66.42;99100.97;5066357;28;20025;-66
2022/09/18 06:32:50;;;;;;;0.30;0.30;;;;;;;13.93;66.59;99097.97;5066223;28;20029;-68
2022/09/18 06:35:16;;;;;;;0.30;0.30;;;;;;;14.77;66.28;99114.28;5066258;28;20032;-65
2022/09/18 06:37:41;;;;;;;0.30;0.30;;;;;;;15.56;65.18;99104.44;5066167;28;20032;-68
2022/09/18 06:40:07;;;;;;;0.22;0.22;;;;;;;16.11;64.14;99106.97;5065842;28;20039;-66
2022/09/18 06:42:32;;;;;;;0.30;0.30;;;;;;;16.31;62.28;99098.03;5066155;28;20025;-67
2022/09/18 06:44:58;;;;;;;0.30;0.30;;;;;;;16.35;62.03;99119.69;5065662;28;20025;-66
2022/09/18 06:47:23;;;;;;;0.30;0.30;;;;;;;16.24;62.05;99122.88;5065920;28;20028;-67
2022/09/18 06:49:48;;;;;;;0.25;0.25;;;;;;;15.98;61.33;99122.44;5065890;28;20088;-67
2022/09/18 06:52:14;;;;;;;0.30;0.30;;;;;;;15.73;61.36;99119.28;5064415;28;20031;-69
2022/09/18 06:54:39;;;;;;;0.30;0.30;;;;;;;15.54;60.51;99127.22;5064411;28;20441;-68
2022/09/18 06:57:06;;;;;;;0.32;0.32;;;;;;;15.31;59.51;99125.72;5065536;28;20025;-66
2022/09/18 06:59:31;;;;;;;0.30;0.30;;;;;;;15.09;60.05;99134.63;5065573;28;20160;-66
2022/09/18 07:01:56;;;;;;;0.40;0.40;;;;;;;14.93;58.95;99134.50;5065837;28;20029;-68
2022/09/18 07:04:22;;;;;;;0.30;0.30;;;;;;;14.66;59.31;99134.84;5064597;28;20045;-68
2022/09/18 07:06:47;;;;;;;0.30;0.30;;;;;;;14.50;59.65;99138.97;5065790;28;20085;-69
2022/09/18 07:09:13;;;;;;;0.30;0.30;;;;;;;14.30;59.41;99136.41;5064694;28;20017;-66
2022/09/18 07:11:38;;;;;;;0.38;0.38;;;;;;;14.07;59.03;99133.94;5065909;28;20029;-67
2022/09/18 07:14:06;;;;;;;0.30;0.30;;;;;;;13.83;59.17;99139.28;5064784;28;20101;-68
2022/09/18 07:16:31;;;;;;;0.30;0.30;;;;;;;13.63;59.22;99140.97;5064182;28;20025;-66
2022/09/18 07:18:57;;;;;;;0.40;0.40;;;;;;;13.46;59.46;99151.19;5065368;28;20047;-67
2022/09/18 07:21:22;;;;;;;0.30;0.30;;;;;;;13.36;59.58;99151.59;5065317;28;20039;-67
2022/09/18 07:23:48;;;;;;;0.40;0.40;;;;;;;13.23;59.90;99150.34;5065696;28;20074;-67
2022/09/18 07:26:13;;;;;;;0.40;0.40;;;;;;;13.20;60.01;99147.88;5065035;28;20508;-66
2022/09/18 07:28:38;;;;;;;0.30;0.30;;;;;;;13.15;60.19;99148.06;5063909;28;20031;-66
2022/09/18 07:31:04;;;;;;;0.30;0.30;;;;;;;13.21;60.20;99152.19;5064984;28;20063;-66
2022/09/18 07:33:31;;;;;;;0.30;0.30;;;;;;;13.37;60.30;99153.25;5064997;28;20040;-67
2022/09/18 07:36:00;;;;;;;0.32;0.32;;;;;;;13.44;60.53;99155.63;5065049;28;20098;-66
2022/09/18 07:38:26;;;;;;;0.30;0.30;;;;;;;13.42;60.41;99128.78;5065080;28;20021;-67
2022/09/18 07:40:51;;;;;;;0.30;0.30;;;;;;;13.70;60.22;99159.81;5064877;28;20033;-67
2022/09/18 07:43:17;;;;;;;0.30;0.30;;;;;;;13.84;60.15;99161.84;5065114;28;20465;-67
2022/09/18 07:45:43;;;;;;;0.30;0.30;;;;;;;13.93;60.13;99163.19;5065218;28;20029;-67
2022/09/18 07:48:08;;;;;;;0.40;0.40;;;;;;;14.08;60.09;99176.50;5064852;28;20100;-67
2022/09/18 07:50:33;;;;;;;0.38;0.38;;;;;;;14.13;60.08;99172.81;5064988;28;20496;-67
2022/09/18 07:53:04;;;;;;;0.30;0.30;;;;;;;14.25;59.73;99174.03;5064929;28;20047;-67
2022/09/18 07:55:30;;;;;;;0.40;0.40;;;;;;;14.20;59.62;99181.19;5064668;28;20024;-66
2022/09/18 07:57:59;;;;;;;0.30;0.30;;;;;;;14.23;59.56;99185.44;5062852;28;20048;-67
2022/09/18 08:00:26;;;;;;;0.40;0.40;;;;;;;14.27;60.03;99178.31;5064857;28;20530;-68
2022/09/18 08:03:03;;;;;;;0.30;0.30;;;;;;;14.41;59.70;99188.19;5064935;28;20052;-67
2022/09/18 08:05:29;;;;;;;0.30;0.30;;;;;;;14.36;59.53;99189.22;5064861;28;20093;-67
2022/09/18 08:07:54;;;;;;;0.30;0.30;;;;;;;14.43;59.41;99188.94;5064856;28;20378;-66
2022/09/18 08:10:19;;;;;;;0.30;0.30;;;;;;;14.48;59.90;99193.06;5064652;28;20021;-66
2022/09/18 08:12:45;;;;;;;0.30;0.30;;;;;;;14.66;59.63;99195.75;5064803;28;20020;-67
2022/09/18 08:15:10;;;;;;;0.30;0.30;;;;;;;14.86;59.57;99197.50;5064659;28;20088;-66
2022/09/18 08:17:43;;;;;;;0.60;0.60;;;;;;;14.94;59.32;99184.06;5064613;28;20108;-68
2022/09/18 08:20:09;;;;;;;0.30;0.30;;;;;;;15.02;59.23;99201.16;5064786;28;20025;-66
2022/09/18 08:22:38;;;;;;;0.30;0.30;;;;;;;15.03;59.11;99192.41;5064652;28;20051;-66
2022/09/18 08:25:03;;;;;;;0.30;0.30;;;;;;;15.06;59.05;99206.19;5064895;28;20469;-66
2022/09/18 08:27:29;;;;;;;0.30;0.30;;;;;;;15.09;58.90;99203.44;5064477;28;20035;-67
2022/09/18 08:29:54;;;;;;;0.30;0.30;;;;;;;15.15;58.61;99210.13;5064657;28;20031;-67
2022/09/18 08:32:20;;;;;;;0.30;0.30;;;;;;;15.11;58.60;99209.41;5064525;28;20033;-68
2022/09/18 08:34:45;;;;;;;0.30;0.30;;;;;;;15.27;59.26;99215.72;5064478;28;20044;-67
2022/09/18 08:37:10;;;;;;;0.30;0.30;;;;;;;15.56;59.04;99218.72;5064450;28;20041;-68
2022/09/18 08:39:36;;;;;;;0.30;0.30;;;;;;;15.86;58.90;99218.94;5064605;28;20029;-67
2022/09/18 08:42:22;;;;;;;0.30;0.30;;;;;;;16.05;58.04;99220.69;5064405;28;20021;-67
2022/09/18 08:44:51;;;;;;;0.30;0.30;;;;;;;15.97;58.09;99220.19;5064409;28;20025;-67
2022/09/18 08:47:34;;;;;;;0.20;0.20;;;;;;;15.99;58.33;99231.44;5062583;28;20025;-67
2022/09/18 08:50:14;;;;;;;0.20;0.20;;;;;;;16.20;58.49;99241.75;5064374;28;20440;-67
2022/09/18 08:52:44;;;;;;;0.30;0.30;;;;;;;16.31;58.00;99231.59;5062771;28;20154;-66
2022/09/18 08:55:38;;;;;;;0.20;0.20;;;;;;;16.58;57.26;99236.31;5064557;28;20020;-67
2022/09/18 08:58:12;;;;;;;0.22;0.22;;;;;;;16.94;57.68;99238.84;5064242;28;20076;-68
2022/09/18 09:00:45;;;;;;;0.30;0.30;;;;;;;17.14;56.61;99236.97;5064560;28;20112;-67
2022/09/18 09:03:41;;;;;;;0.30;0.30;;;;;;;17.29;55.45;99238.75;5064123;28;20029;-67
2022/09/18 09:07:04;;;;;;;0.30;0.30;;;;;;;17.27;53.17;99237.97;5064097;28;20037;-67
2022/09/18 09:09:29;;;;;;;;;;;;;;;17.21;53.80;99243.56;5005498;28;20046;-67
2022/09/18 09:12:02;;;;;;;0.30;0.30;;;;;;;16.97;54.29;99249.16;4989473;28;19914;-68
2022/09/18 09:14:36;;;;;;;0.30;0.30;;;;;;;16.87;54.65;99240.13;5006277;28;20460;-67
2022/09/18 09:17:30;;;;;;;0.20;0.20;;;;;;;16.88;54.96;99242.66;5005962;28;20153;-67
2022/09/18 09:20:07;;;;;;;0.30;0.30;;;;;;;16.66;53.96;99249.03;5005954;28;20046;-67
2022/09/18 09:22:50;;;;;;;0.20;0.20;;;;;;;16.56;54.11;99248.69;5006091;28;20087;-67
2022/09/18 09:25:58;;;;;;;0.30;0.30;;;;;;;16.76;54.51;99249.38;5006079;28;20085;-65
2022/09/18 09:28:37;;;;;;;0.30;0.30;;;;;;;17.01;54.09;99248.09;4998245;28;20104;-68
2022/09/18 09:31:06;;;;;;;0.30;0.30;;;;;;;17.31;53.81;99250.00;5005925;28;20030;-67
2022/09/18 09:33:41;;;;;;;0.28;0.28;;;;;;;17.61;54.67;99242.25;5005689;28;20050;-69
2022/09/18 09:36:14;;;;;;;0.50;0.50;;;;;;;18.35;51.41;99244.19;5005472;28;20050;-69
2022/09/18 09:39:00;;;;;;;0.20;0.20;;;;;;;19.04;52.03;99241.75;5005615;28;20098;-69
2022/09/18 09:41:36;;;;;;;0.20;0.20;;;;;;;21.15;50.36;99245.53;5067135;28;20092;-70
2022/09/18 09:44:25;;;;;;;0.20;0.20;;;;;;;22.97;45.01;99239.09;5067357;28;20082;-68
2022/09/18 09:47:01;;;;;;;0.20;0.20;;;;;;;24.38;42.30;99243.66;5066824;28;20028;-74
2022/09/18 09:49:33;;;;;;;0.20;0.20;;;;;;;24.24;40.32;99243.03;5067374;28;20067;-72
2022/09/18 09:52:20;;;;;;;0.20;0.20;;;;;;;23.63;41.78;99255.09;5065942;28;20036;-73
2022/09/18 09:54:49;;;;;;;0.10;0.10;;;;;;;24.14;42.61;99253.56;5066130;28;20021;-68
2022/09/18 09:57:39;;;;;;;0.10;0.10;;;;;;;25.41;40.93;99248.09;5065831;28;20029;-66
2022/09/18 10:00:19;;;;;;;0.10;0.10;;;;;;;25.98;36.87;99241.25;5065784;28;20516;-67
2022/09/18 10:03:22;;;;;;;0.10;0.10;;;;;;;26.79;35.96;99252.41;5064806;28;20033;-68
2022/09/18 10:06:02;;;;;;;0.10;0.10;;;;;;;27.66;39.07;99256.53;5067018;28;20066;-65
2022/09/18 10:08:43;;;;;;;0.10;0.10;;;;;;;27.97;34.13;99257.97;5066676;28;20063;-72
2022/09/18 10:11:10;;;;;;;0.10;0.10;;;;;;;28.56;37.30;99256.56;5066664;28;20025;-71
2022/09/18 10:13:54;;;;;;;0.10;0.10;;;;;;;28.87;34.51;99255.19;5066906;28;20051;-65
2022/09/18 10:16:28;;;;;;;0.10;0.10;;;;;;;28.89;32.09;99239.81;5066738;28;20104;-71
2022/09/18 10:18:53;;;;;;;0.10;0.10;;;;;;;28.33;35.35;99247.25;5066972;28;20025;-66
2022/09/18 10:21:23;;;;;;;0.10;0.10;;;;;;;27.94;34.10;99253.78;5066141;28;20024;-71
2022/09/18 10:23:48;;;;;;;0.10;0.10;;;;;;;27.98;32.67;99248.13;5066657;28;20062;-71
2022/09/18 10:26:24;;;;;;;0.10;0.10;;;;;;;28.01;33.55;99263.81;5066315;28;20055;-70
2022/09/18 10:28:49;;;;;;;0.10;0.10;;;;;;;28.64;33.95;99255.75;5066336;28;20105;-70
2022/09/18 10:31:16;;;;;;;0.10;0.10;;;;;;;28.21;31.96;99259.97;5065126;28;20052;-70
2022/09/18 10:33:48;;;;;;;0.10;0.10;;;;;;;27.86;30.29;99263.56;5066096;28;20033;-69
2022/09/18 10:36:31;;;;;;;0.47;0.47;;;;;;;26.90;30.31;99261.19;5066148;28;20091;-67
2022/09/18 10:38:58;;;;;;;0.10;0.10;;;;;;;25.98;32.90;99273.16;5064406;28;20098;-69
2022/09/18 10:41:35;;;;;;;0.10;0.10;;;;;;;25.92;33.03;99273.72;5065936;28;20063;-69
2022/09/18 10:44:13;;;;;;;0.20;0.20;;;;;;;26.11;31.80;99278.19;5066089;28;20047;-67
2022/09/18 10:46:49;;;;;;;0.10;0.10;;;;;;;26.56;32.70;99273.22;5066036;28;20071;-74
2022/09/18 10:49:57;;;;;;;0.10;0.10;;;;;;;27.31;32.54;99269.69;5066104;28;20039;-74
2022/09/18 10:52:26;;;;;;;0.10;0.10;;;;;;;27.43;31.76;99266.81;5065398;28;20037;-71
2022/09/18 10:55:03;;;;;;;0.10;0.10;;;;;;;27.31;29.88;99263.50;5065887;28;20082;-73
2022/09/18 10:57:42;;;;;;;0.10;0.10;;;;;;;26.94;31.19;99263.41;5065596;28;20025;-72
2022/09/18 11:00:10;;;;;;;0.10;0.10;;;;;;;27.56;31.94;99269.06;5065810;28;20120;-68
2022/09/18 11:02:45;;;;;;;0.10;0.10;;;;;;;27.85;30.61;99265.38;5065508;28;20025;-67
2022/09/18 11:05:22;;;;;;;0.20;0.20;;;;;;;27.88;28.90;99274.88;5065290;28;20040;-69
2022/09/18 11:07:52;;;;;;;0.20;0.20;;;;;;;27.02;28.67;99256.53;5065204;28;20110;-71
2022/09/18 11:10:23;;;;;;;0.10;0.10;;;;;;;26.74;30.81;99273.31;5065138;28;20079;-67
2022/09/18 11:12:52;;;;;;;0.20;0.20;;;;;;;26.49;30.28;99288.94;5065062;28;20021;-68
2022/09/18 11:15:26;;;;;;;0.15;0.15;;;;;;;25.73;31.22;99286.91;5065161;28;20054;-69
2022/09/18 11:17:55;;;;;;;0.10;0.10;;;;;;;24.81;31.82;99294.03;5065328;28;20028;-70
2022/09/18 11:20:26;;;;;;;0.20;0.20;;;;;;;23.45;33.00;99290.06;5065390;28;20055;-70
2022/09/18 11:22:52;;;;;;;0.20;0.20;;;;;;;22.68;34.63;99289.88;5065512;28;20040;-69
2022/09/18 11:25:18;;;;;;;0.20;0.20;;;;;;;21.62;35.25;99287.94;5064119;28;20468;-71
2022/09/18 11:27:50;;;;;;;42.47;1.75;;;;;;;20.87;36.03;99301.06;5062968;28;20260;-70
2022/09/18 11:30:22;;;;;;;0.20;0.20;;;;;;;20.95;37.09;99295.28;5064301;28;20025;-69
2022/09/18 11:32:52;;;;;;;0.20;0.20;;;;;;;20.95;36.98;99295.28;5064227;28;20029;-71
2022/09/18 11:35:21;;;;;;;1.58;0.75;;;;;;;20.42;37.50;99301.47;5064037;28;20033;-72
2022/09/18 11:37:51;;;;;;;0.20;0.20;;;;;;;19.92;38.33;99302.91;5065277;28;20041;-71
2022/09/18 11:40:23;;;;;;;0.20;0.20;;;;;;;19.50;39.21;99284.56;5065585;28;20059;-70
2022/09/18 11:42:52;;;;;;;0.20;0.20;;;;;;;19.30;40.09;99280.53;5065144;28;20052;-73
2022/09/18 11:45:29;;;;;;;0.20;0.20;;;;;;;19.24;41.10;99294.09;5065389;28;20078;-71
2022/09/18 11:48:25;;;;;;;0.20;0.20;;;;;;;18.91;41.76;99301.31;5065165;28;20380;-67
2022/09/18 11:50:55;;;;;;;0.20;0.20;;;;;;;18.85;42.06;99296.44;5065285;28;20085;-72
2022/09/18 11:53:44;;;;;;;0.20;0.20;;;;;;;18.88;41.90;99304.13;5065270;28;20049;-73